createdAt,value
2024-05-09T00:00:29.923Z,11.80
2024-05-09T00:01:25.418Z,11.84
2024-05-09T00:02:24.367Z,11.83
2024-05-09T00:03:21.351Z,11.88
2024-05-09T00:04:21.316Z,11.94
2024-05-09T00:05:21.433Z,11.99
2024-05-09T00:06:21.278Z,11.94
2024-05-09T00:07:21.248Z,11.87
2024-05-09T00:08:21.302Z,11.83
2024-05-09T00:09:21.240Z,11.80
2024-05-09T00:10:28.850Z,11.80
2024-05-09T00:11:22.330Z,11.75
2024-05-09T00:12:21.324Z,11.75
2024-05-09T00:13:21.146Z,11.78
2024-05-09T00:14:21.224Z,11.70
2024-05-09T00:15:21.124Z,11.66
2024-05-09T00:16:21.101Z,11.66
2024-05-09T00:17:21.257Z,11.72
2024-05-09T00:18:21.239Z,11.65
2024-05-09T00:19:21.215Z,11.66
2024-05-09T00:20:28.073Z,11.68
2024-05-09T00:21:25.051Z,11.66
2024-05-09T00:22:24.062Z,11.65
2024-05-09T00:23:28.616Z,11.63
2024-05-09T00:24:20.974Z,11.63
2024-05-09T00:25:20.968Z,11.63
2024-05-09T00:26:21.093Z,11.62
2024-05-09T00:27:20.990Z,11.60
2024-05-09T00:28:20.965Z,11.59
2024-05-09T00:29:21.159Z,11.54
2024-05-09T00:30:28.017Z,11.50
2024-05-09T00:31:21.902Z,11.43
2024-05-09T00:32:21.261Z,11.40
2024-05-09T00:33:21.413Z,11.37
2024-05-09T00:34:20.958Z,11.36
2024-05-09T00:35:20.904Z,11.36
2024-05-09T00:36:20.943Z,11.41
2024-05-09T00:37:20.887Z,11.40
2024-05-09T00:38:21.095Z,11.36
2024-05-09T00:39:20.860Z,11.36
2024-05-09T00:40:30.790Z,11.35
2024-05-09T00:41:24.839Z,11.30
2024-05-09T00:42:23.742Z,11.25
2024-05-09T00:43:20.716Z,11.14
2024-05-09T00:44:20.754Z,11.17
2024-05-09T00:45:20.689Z,11.07
2024-05-09T00:46:20.714Z,11.15
2024-05-09T00:47:20.855Z,11.17
2024-05-09T00:48:21.624Z,11.19
2024-05-09T00:49:20.816Z,11.22
2024-05-09T00:50:29.419Z,11.12
2024-05-09T00:51:21.689Z,11.15
2024-05-09T00:52:20.598Z,11.15
2024-05-09T00:53:20.680Z,11.12
2024-05-09T00:54:20.585Z,11.08
2024-05-09T00:55:20.560Z,11.14
2024-05-09T00:56:20.622Z,11.14
2024-05-09T00:57:20.546Z,11.14
2024-05-09T00:58:20.528Z,11.12
2024-05-09T00:59:20.553Z,11.05
2024-05-09T01:00:27.270Z,11.04
2024-05-09T01:01:24.525Z,11.11
2024-05-09T01:02:23.582Z,11.05
2024-05-09T01:03:20.905Z,11.04
2024-05-09T01:04:20.560Z,11.00
2024-05-09T01:05:20.454Z,11.00
2024-05-09T01:06:20.467Z,11.02
2024-05-09T01:07:20.409Z,10.99
2024-05-09T01:08:20.558Z,10.90
2024-05-09T01:09:20.389Z,10.89
2024-05-09T01:10:27.637Z,10.86
2024-05-09T01:11:21.489Z,10.82
2024-05-09T01:12:20.555Z,10.82
2024-05-09T01:13:20.330Z,10.86
2024-05-09T01:14:20.427Z,10.84
2024-05-09T01:15:20.303Z,10.86
2024-05-09T01:16:20.303Z,10.81
2024-05-09T01:17:20.385Z,10.81
2024-05-09T01:18:20.513Z,10.76
2024-05-09T01:19:20.409Z,10.76
2024-05-09T01:20:31.499Z,10.72
2024-05-09T01:21:24.249Z,10.72
2024-05-09T01:22:23.236Z,10.63
2024-05-09T01:23:20.244Z,10.60
2024-05-09T01:24:20.198Z,10.57
2024-05-09T01:25:20.175Z,10.57
2024-05-09T01:26:20.262Z,10.56
2024-05-09T01:27:20.147Z,10.61
2024-05-09T01:28:20.152Z,10.57
2024-05-09T01:29:20.221Z,10.59
2024-05-09T01:30:24.385Z,10.59
2024-05-09T01:31:21.092Z,10.57
2024-05-09T01:32:20.196Z,10.54
2024-05-09T01:33:20.402Z,10.56
2024-05-09T01:34:20.211Z,10.54
2024-05-09T01:35:20.069Z,10.57
2024-05-09T01:36:20.027Z,10.56
2024-05-09T01:37:20.026Z,10.57
2024-05-09T01:38:20.156Z,10.54
2024-05-09T01:39:19.983Z,10.54
2024-05-09T01:40:25.356Z,10.51
2024-05-09T01:41:23.974Z,10.51
2024-05-09T01:42:22.989Z,10.44
2024-05-09T01:43:19.924Z,10.40
2024-05-09T01:44:19.990Z,10.33
2024-05-09T01:45:19.899Z,10.26
2024-05-09T01:46:19.902Z,10.25
2024-05-09T01:47:19.967Z,10.20
2024-05-09T01:48:20.018Z,10.19
2024-05-09T01:49:19.924Z,10.16
2024-05-09T01:50:28.964Z,10.13
2024-05-09T01:51:20.847Z,10.10
2024-05-09T01:52:19.811Z,10.12
2024-05-09T01:53:19.888Z,10.12
2024-05-09T01:54:19.787Z,10.09
2024-05-09T01:55:19.759Z,10.04
2024-05-09T01:56:19.768Z,10.09
2024-05-09T01:57:19.785Z,10.09
2024-05-09T01:58:19.722Z,10.10
2024-05-09T01:59:19.750Z,10.12
2024-05-09T02:00:30.174Z,10.12
2024-05-09T02:01:23.744Z,10.13
2024-05-09T02:02:22.833Z,10.09
2024-05-09T02:03:19.913Z,10.13
2024-05-09T02:04:19.929Z,10.15
2024-05-09T02:05:19.746Z,10.17
2024-05-09T02:06:19.671Z,10.17
2024-05-09T02:07:19.630Z,10.17
2024-05-09T02:08:20.012Z,10.19
2024-05-09T02:09:19.572Z,10.17
2024-05-09T02:10:26.173Z,10.17
2024-05-09T02:11:20.718Z,10.16
2024-05-09T02:12:19.656Z,10.17
2024-05-09T02:13:19.512Z,10.16
2024-05-09T02:14:19.558Z,10.15
2024-05-09T02:15:19.502Z,10.13
2024-05-09T02:16:19.476Z,10.09
2024-05-09T02:17:19.566Z,10.04
2024-05-09T02:18:19.558Z,10.04
2024-05-09T02:19:19.543Z,10.04
2024-05-09T02:20:29.961Z,10.05
2024-05-09T02:21:23.429Z,10.09
2024-05-09T02:22:22.394Z,10.05
2024-05-09T02:23:19.445Z,10.09
2024-05-09T02:24:19.369Z,10.12
2024-05-09T02:25:19.395Z,10.13
2024-05-09T02:26:19.400Z,10.07
2024-05-09T02:27:19.328Z,10.05
2024-05-09T02:28:19.321Z,10.02
2024-05-09T02:29:19.348Z,10.07
2024-05-09T02:30:26.394Z,10.10
2024-05-09T02:31:20.313Z,10.05
2024-05-09T02:32:19.333Z,10.05
2024-05-09T02:33:19.487Z,10.09
2024-05-09T02:34:19.308Z,10.09
2024-05-09T02:35:19.253Z,10.09
2024-05-09T02:36:19.199Z,10.05
2024-05-09T02:37:19.231Z,10.02
2024-05-09T02:38:19.254Z,9.95
2024-05-09T02:39:19.157Z,9.97
2024-05-09T02:40:25.629Z,9.87
2024-05-09T02:41:23.218Z,9.83
2024-05-09T02:42:22.124Z,9.77
2024-05-09T02:43:19.100Z,9.72
2024-05-09T02:44:19.159Z,9.64
2024-05-09T02:45:19.114Z,9.61
2024-05-09T02:46:19.072Z,9.64
2024-05-09T02:47:19.134Z,9.62
2024-05-09T02:48:19.225Z,9.64
2024-05-09T02:49:19.197Z,9.64
2024-05-09T02:50:26.715Z,9.66
2024-05-09T02:51:20.000Z,9.76
2024-05-09T02:52:18.988Z,9.73
2024-05-09T02:53:19.029Z,9.74
2024-05-09T02:54:18.992Z,9.74
2024-05-09T02:55:18.943Z,9.76
2024-05-09T02:56:19.023Z,9.79
2024-05-09T02:57:18.923Z,9.82
2024-05-09T02:58:18.913Z,9.82
2024-05-09T02:59:18.998Z,9.80
2024-05-09T03:00:23.150Z,9.79
2024-05-09T03:01:23.008Z,9.76
2024-05-09T03:02:22.032Z,9.68
2024-05-09T03:03:19.281Z,9.66
2024-05-09T03:04:18.948Z,9.56
2024-05-09T03:05:19.083Z,9.61
2024-05-09T03:06:18.806Z,9.65
2024-05-09T03:07:20.353Z,9.65
2024-05-09T03:08:18.825Z,9.62
2024-05-09T03:09:18.747Z,9.62
2024-05-09T03:10:25.373Z,9.56
2024-05-09T03:11:19.906Z,9.58
2024-05-09T03:12:18.752Z,9.58
2024-05-09T03:13:18.718Z,9.56
2024-05-09T03:14:18.713Z,9.59
2024-05-09T03:15:18.668Z,9.58
2024-05-09T03:16:18.693Z,9.51
2024-05-09T03:17:18.769Z,9.50
2024-05-09T03:18:18.718Z,9.43
2024-05-09T03:19:18.732Z,9.47
2024-05-09T03:20:23.788Z,9.44
2024-05-09T03:21:22.608Z,9.44
2024-05-09T03:22:21.588Z,9.39
2024-05-09T03:23:18.591Z,9.37
2024-05-09T03:24:18.581Z,9.44
2024-05-09T03:25:18.528Z,9.44
2024-05-09T03:26:18.609Z,9.51
2024-05-09T03:27:18.507Z,9.54
2024-05-09T03:28:18.505Z,9.54
2024-05-09T03:29:18.536Z,9.55
2024-05-09T03:30:29.321Z,9.51
2024-05-09T03:31:19.490Z,9.55
2024-05-09T03:32:18.544Z,9.61
2024-05-09T03:33:20.172Z,9.56
2024-05-09T03:34:18.495Z,9.61
2024-05-09T03:35:18.448Z,9.66
2024-05-09T03:36:18.427Z,9.64
2024-05-09T03:37:18.422Z,9.68
2024-05-09T03:38:18.559Z,9.76
2024-05-09T03:39:18.340Z,9.79
2024-05-09T03:40:23.639Z,9.80
2024-05-09T03:41:22.493Z,9.79
2024-05-09T03:42:21.346Z,9.76
2024-05-09T03:43:18.282Z,9.89
2024-05-09T03:44:18.328Z,9.94
2024-05-09T03:45:18.256Z,9.97
2024-05-09T03:46:18.290Z,9.95
2024-05-09T03:47:18.267Z,9.92
2024-05-09T03:48:18.490Z,9.91
2024-05-09T03:49:18.423Z,9.91
2024-05-09T03:50:25.820Z,9.94
2024-05-09T03:51:19.218Z,9.99
2024-05-09T03:52:18.163Z,10.01
2024-05-09T03:53:18.337Z,10.04
2024-05-09T03:54:18.179Z,10.02
2024-05-09T03:55:18.120Z,10.01
2024-05-09T03:56:18.181Z,10.01
2024-05-09T03:57:18.097Z,10.02
2024-05-09T03:58:18.186Z,10.09
2024-05-09T03:59:18.139Z,10.12
2024-05-09T04:00:26.202Z,10.15
2024-05-09T04:01:22.088Z,10.16
2024-05-09T04:02:21.175Z,10.15
2024-05-09T04:03:18.464Z,10.22
2024-05-09T04:04:18.099Z,10.28
2024-05-09T04:05:18.056Z,10.31
2024-05-09T04:06:17.976Z,10.37
2024-05-09T04:07:17.967Z,10.41
2024-05-09T04:08:18.030Z,10.44
2024-05-09T04:09:17.928Z,10.54
2024-05-09T04:10:27.652Z,10.59
2024-05-09T04:11:19.023Z,10.60
2024-05-09T04:12:18.064Z,10.64
2024-05-09T04:13:17.876Z,10.69
2024-05-09T04:14:17.932Z,10.69
2024-05-09T04:15:17.864Z,10.71
2024-05-09T04:16:17.910Z,10.78
2024-05-09T04:17:17.866Z,10.86
2024-05-09T04:18:17.916Z,10.94
2024-05-09T04:19:18.037Z,10.99
2024-05-09T04:20:28.759Z,11.10
2024-05-09T04:21:21.826Z,11.27
2024-05-09T04:22:20.765Z,11.45
2024-05-09T04:23:17.798Z,11.72
2024-05-09T04:24:17.725Z,12.06
2024-05-09T04:25:17.739Z,12.39
2024-05-09T04:26:17.751Z,12.68
2024-05-09T04:27:17.717Z,13.03
2024-05-09T04:28:17.677Z,13.30
2024-05-09T04:29:17.706Z,13.49
2024-05-09T04:30:25.766Z,13.65
2024-05-09T04:31:18.641Z,13.78
2024-05-09T04:32:17.762Z,14.00
2024-05-09T04:33:17.916Z,14.11
2024-05-09T04:34:17.722Z,14.18
2024-05-09T04:35:17.666Z,14.30
2024-05-09T04:36:17.566Z,14.41
2024-05-09T04:37:17.561Z,14.43
2024-05-09T04:38:17.590Z,14.53
2024-05-09T04:39:17.559Z,14.66
2024-05-09T04:40:24.415Z,14.82
2024-05-09T04:41:21.543Z,14.96
2024-05-09T04:42:20.477Z,15.03
2024-05-09T04:43:17.619Z,15.09
2024-05-09T04:44:17.543Z,15.22
2024-05-09T04:45:17.489Z,15.31
2024-05-09T04:46:17.429Z,15.35
2024-05-09T04:47:17.550Z,15.42
2024-05-09T04:48:17.582Z,15.33
2024-05-09T04:49:17.600Z,15.27
2024-05-09T04:50:24.709Z,15.44
2024-05-09T04:51:18.538Z,15.57
2024-05-09T04:52:17.357Z,15.55
2024-05-09T04:53:17.717Z,15.52
2024-05-09T04:54:26.493Z,15.58
2024-05-09T04:55:18.306Z,15.65
2024-05-09T04:56:17.366Z,15.77
2024-05-09T04:57:17.279Z,15.91
2024-05-09T04:58:17.269Z,16.01
2024-05-09T04:59:17.255Z,16.17
2024-05-09T05:00:21.990Z,16.36
2024-05-09T05:01:21.293Z,16.54
2024-05-09T05:02:20.291Z,16.65
2024-05-09T05:03:17.795Z,16.75
2024-05-09T05:04:17.251Z,16.84
2024-05-09T05:05:17.366Z,16.94
2024-05-09T05:06:17.159Z,16.99
2024-05-09T05:07:17.395Z,16.97
2024-05-09T05:08:18.297Z,16.96
2024-05-09T05:09:17.160Z,17.06
2024-05-09T05:10:25.101Z,16.99
2024-05-09T05:11:18.144Z,16.94
2024-05-09T05:12:17.226Z,16.78
2024-05-09T05:13:18.525Z,16.79
2024-05-09T05:14:17.161Z,16.78
2024-05-09T05:15:17.043Z,16.83
2024-05-09T05:16:17.017Z,16.91
2024-05-09T05:17:17.041Z,17.04
2024-05-09T05:18:17.202Z,16.96
2024-05-09T05:19:17.787Z,16.84
2024-05-09T05:20:24.518Z,16.86
2024-05-09T05:21:21.212Z,17.05
2024-05-09T05:22:19.948Z,17.23
2024-05-09T05:23:17.002Z,17.51
2024-05-09T05:24:16.907Z,17.85
2024-05-09T05:25:16.932Z,18.08
2024-05-09T05:26:16.917Z,18.33
2024-05-09T05:27:16.867Z,18.62
2024-05-09T05:28:16.858Z,18.77
2024-05-09T05:29:20.201Z,18.89
2024-05-09T05:30:21.488Z,19.09
2024-05-09T05:31:17.926Z,19.24
2024-05-09T05:32:17.029Z,19.44
2024-05-09T05:33:16.972Z,19.56
2024-05-09T05:34:16.794Z,19.74
2024-05-09T05:35:16.826Z,19.86
2024-05-09T05:36:16.750Z,19.96
2024-05-09T05:37:16.775Z,20.03
2024-05-09T05:38:16.794Z,20.10
2024-05-09T05:39:16.786Z,20.18
2024-05-09T05:40:27.578Z,20.19
2024-05-09T05:41:20.740Z,20.26
2024-05-09T05:42:19.733Z,20.26
2024-05-09T05:43:16.746Z,20.41
2024-05-09T05:44:16.698Z,20.62
2024-05-09T05:45:16.630Z,20.80
2024-05-09T05:46:16.618Z,21.00
2024-05-09T05:47:16.713Z,21.14
2024-05-09T05:48:17.450Z,21.29
2024-05-09T05:49:16.701Z,21.43
2024-05-09T05:50:24.666Z,21.54
2024-05-09T05:51:17.683Z,21.50
2024-05-09T05:52:16.550Z,21.62
2024-05-09T05:53:16.655Z,21.72
2024-05-09T05:54:16.546Z,21.77
2024-05-09T05:55:16.500Z,21.80
2024-05-09T05:56:16.632Z,21.83
2024-05-09T05:57:16.526Z,21.91
2024-05-09T05:58:16.452Z,22.02
2024-05-09T05:59:16.482Z,21.99
2024-05-09T06:00:26.032Z,22.07
2024-05-09T06:01:20.463Z,22.10
2024-05-09T06:02:19.589Z,21.96
2024-05-09T06:03:16.528Z,22.00
2024-05-09T06:04:16.449Z,21.80
2024-05-09T06:05:16.420Z,21.67
2024-05-09T06:06:16.355Z,21.51
2024-05-09T06:07:16.332Z,21.20
2024-05-09T06:08:16.476Z,20.95
2024-05-09T06:09:16.339Z,20.43
2024-05-09T06:10:21.496Z,20.13
2024-05-09T06:11:17.387Z,20.21
2024-05-09T06:12:16.375Z,20.16
2024-05-09T06:13:16.272Z,19.99
2024-05-09T06:14:16.268Z,19.73
2024-05-09T06:15:16.234Z,19.44
2024-05-09T06:16:16.269Z,19.08
2024-05-09T06:17:16.294Z,18.75
2024-05-09T06:18:16.307Z,18.41
2024-05-09T06:19:16.309Z,18.33
2024-05-09T06:20:20.813Z,18.25
2024-05-09T06:21:20.221Z,18.13
2024-05-09T06:22:19.121Z,17.92
2024-05-09T06:23:25.139Z,17.74
2024-05-09T06:24:16.188Z,17.45
2024-05-09T06:25:16.090Z,17.34
2024-05-09T06:26:16.192Z,17.33
2024-05-09T06:27:16.089Z,17.41
2024-05-09T06:28:16.130Z,17.46
2024-05-09T06:29:16.183Z,17.39
2024-05-09T06:30:25.693Z,17.39
2024-05-09T06:31:17.022Z,17.39
2024-05-09T06:32:16.285Z,17.24
2024-05-09T06:33:16.827Z,17.02
2024-05-09T06:34:16.250Z,16.91
2024-05-09T06:35:15.954Z,17.08
2024-05-09T06:36:15.923Z,16.99
2024-05-09T06:37:15.923Z,17.12
2024-05-09T06:38:15.950Z,16.91
2024-05-09T06:39:15.957Z,16.96
2024-05-09T06:40:21.377Z,17.08
2024-05-09T06:41:19.901Z,16.64
2024-05-09T06:42:18.906Z,16.72
2024-05-09T06:43:17.906Z,16.74
2024-05-09T06:44:15.917Z,16.84
2024-05-09T06:45:15.877Z,16.74
2024-05-09T06:46:15.839Z,16.65
2024-05-09T06:47:15.888Z,16.60
2024-05-09T06:48:15.949Z,16.43
2024-05-09T06:49:15.926Z,16.39
2024-05-09T06:50:23.390Z,16.39
2024-05-09T06:51:16.920Z,16.49
2024-05-09T06:52:15.713Z,16.50
2024-05-09T06:53:15.857Z,16.39
2024-05-09T06:54:15.693Z,16.41
2024-05-09T06:55:15.685Z,16.38
2024-05-09T06:56:15.770Z,16.29
2024-05-09T06:57:15.680Z,16.21
2024-05-09T06:58:15.711Z,16.09
2024-05-09T06:59:15.678Z,15.92
2024-05-09T07:00:22.952Z,15.94
2024-05-09T07:01:19.664Z,16.00
2024-05-09T07:02:18.674Z,15.80
2024-05-09T07:03:17.762Z,15.86
2024-05-09T07:04:15.850Z,16.05
2024-05-09T07:05:15.883Z,16.32
2024-05-09T07:06:15.623Z,16.56
2024-05-09T07:07:15.547Z,16.64
2024-05-09T07:08:15.730Z,16.74
2024-05-09T07:09:15.563Z,16.74
2024-05-09T07:10:22.025Z,16.78
2024-05-09T07:11:16.577Z,16.97
2024-05-09T07:12:15.561Z,17.09
2024-05-09T07:13:15.934Z,17.04
2024-05-09T07:14:15.478Z,17.02
2024-05-09T07:15:15.429Z,17.12
2024-05-09T07:16:15.470Z,17.22
2024-05-09T07:17:15.620Z,17.19
2024-05-09T07:18:17.114Z,16.96
2024-05-09T07:19:15.605Z,16.91
2024-05-09T07:20:23.160Z,17.01
2024-05-09T07:21:19.554Z,17.23
2024-05-09T07:22:18.309Z,17.31
2024-05-09T07:23:15.736Z,17.48
2024-05-09T07:24:15.305Z,17.39
2024-05-09T07:25:15.270Z,17.44
2024-05-09T07:26:15.387Z,17.52
2024-05-09T07:27:15.305Z,17.52
2024-05-09T07:28:15.261Z,17.71
2024-05-09T07:29:15.305Z,17.82
2024-05-09T07:30:22.929Z,17.82
2024-05-09T07:31:16.189Z,17.67
2024-05-09T07:32:15.389Z,17.78
2024-05-09T07:33:15.549Z,17.92
2024-05-09T07:34:15.460Z,18.00
2024-05-09T07:35:15.200Z,18.04
2024-05-09T07:36:15.146Z,18.00
2024-05-09T07:37:15.123Z,17.83
2024-05-09T07:38:15.203Z,17.76
2024-05-09T07:39:15.170Z,17.82
2024-05-09T07:40:24.501Z,17.87
2024-05-09T07:41:19.148Z,18.00
2024-05-09T07:42:18.055Z,18.19
2024-05-09T07:43:15.255Z,18.34
2024-05-09T07:44:15.094Z,18.35
2024-05-09T07:45:30.104Z,18.23
2024-05-09T07:47:14.182Z,18.03
2024-05-09T07:48:28.901Z,18.03
2024-05-09T07:49:45.406Z,18.19
2024-05-09T07:50:55.976Z,18.18
2024-05-09T07:53:29.791Z,18.74
2024-05-09T07:53:37.850Z,18.74
2024-05-09T07:54:16.075Z,18.83
2024-05-09T07:55:15.102Z,18.73
2024-05-09T07:56:15.557Z,18.59
2024-05-09T07:57:14.998Z,18.55
2024-05-09T07:58:14.854Z,18.58
2024-05-09T07:59:14.878Z,18.65
2024-05-09T08:00:20.252Z,18.68
2024-05-09T08:01:19.147Z,18.47
2024-05-09T08:02:17.881Z,18.44
2024-05-09T08:03:14.916Z,18.58
2024-05-09T08:04:14.965Z,18.73
2024-05-09T08:05:14.963Z,18.83
2024-05-09T08:06:14.917Z,18.89
2024-05-09T08:07:15.085Z,18.86
2024-05-09T08:08:14.695Z,18.58
2024-05-09T08:09:20.539Z,18.63
2024-05-09T08:10:21.906Z,18.75
2024-05-09T08:11:15.839Z,18.71
2024-05-09T08:12:14.640Z,18.73
2024-05-09T08:13:14.652Z,18.78
2024-05-09T08:14:14.618Z,18.90
2024-05-09T08:15:14.592Z,19.07
2024-05-09T08:16:14.776Z,19.14
2024-05-09T08:17:14.656Z,19.27
2024-05-09T08:18:14.668Z,19.37
2024-05-09T08:19:14.618Z,19.40
2024-05-09T08:20:22.865Z,19.18
2024-05-09T08:21:18.550Z,18.74
2024-05-09T08:22:17.579Z,18.75
2024-05-09T08:23:14.500Z,18.66
2024-05-09T08:24:14.464Z,18.59
2024-05-09T08:25:14.629Z,18.75
2024-05-09T08:26:14.441Z,19.00
2024-05-09T08:27:14.424Z,18.90
2024-05-09T08:28:14.575Z,18.92
2024-05-09T08:29:14.391Z,18.74
2024-05-09T08:30:21.784Z,18.77
2024-05-09T08:31:15.710Z,18.88
2024-05-09T08:32:14.453Z,19.12
2024-05-09T08:33:14.519Z,19.24
2024-05-09T08:34:14.519Z,19.07
2024-05-09T08:35:14.355Z,18.74
2024-05-09T08:36:14.314Z,18.50
2024-05-09T08:37:21.440Z,18.58
2024-05-09T08:38:15.383Z,18.73
2024-05-09T08:39:14.287Z,18.68
2024-05-09T08:40:19.902Z,18.83
2024-05-09T08:41:18.253Z,18.93
2024-05-09T08:42:17.216Z,18.84
2024-05-09T08:43:14.350Z,19.08
2024-05-09T08:44:14.196Z,19.29
2024-05-09T08:45:14.178Z,19.34
2024-05-09T08:46:14.242Z,19.56
2024-05-09T08:47:14.211Z,19.47
2024-05-09T08:48:15.680Z,19.66
2024-05-09T08:49:14.206Z,19.63
2024-05-09T08:50:24.329Z,19.37
2024-05-09T08:51:15.333Z,19.30
2024-05-09T08:52:14.154Z,19.31
2024-05-09T08:53:14.075Z,19.30
2024-05-09T08:54:14.065Z,19.34
2024-05-09T08:55:14.074Z,19.62
2024-05-09T08:56:14.052Z,19.69
2024-05-09T08:57:14.017Z,19.70
2024-05-09T08:58:14.418Z,19.74
2024-05-09T08:59:13.988Z,19.73
2024-05-09T09:00:18.131Z,19.86
2024-05-09T09:01:18.074Z,20.09
2024-05-09T09:02:17.204Z,20.22
2024-05-09T09:03:14.060Z,20.28
2024-05-09T09:04:14.057Z,20.31
2024-05-09T09:05:14.063Z,20.11
2024-05-09T09:06:13.939Z,19.96
2024-05-09T09:07:13.949Z,19.95
2024-05-09T09:08:13.868Z,20.02
2024-05-09T09:09:13.855Z,20.13
2024-05-09T09:10:21.115Z,20.14
2024-05-09T09:11:14.908Z,19.96
2024-05-09T09:12:13.827Z,20.04
2024-05-09T09:13:13.976Z,19.96
2024-05-09T09:14:13.793Z,20.04
2024-05-09T09:15:13.804Z,19.88
2024-05-09T09:16:13.807Z,19.74
2024-05-09T09:17:13.806Z,19.85
2024-05-09T09:18:13.896Z,19.89
2024-05-09T09:19:13.977Z,19.66
2024-05-09T09:20:16.623Z,19.62
2024-05-09T09:21:17.781Z,19.70
2024-05-09T09:22:16.755Z,19.70
2024-05-09T09:23:13.706Z,19.79
2024-05-09T09:24:13.657Z,19.89
2024-05-09T09:25:13.658Z,19.82
2024-05-09T09:26:13.616Z,19.77
2024-05-09T09:27:13.682Z,19.77
2024-05-09T09:28:13.760Z,19.94
2024-05-09T09:29:13.569Z,20.18
2024-05-09T09:30:26.867Z,20.41
2024-05-09T09:31:14.608Z,20.63
2024-05-09T09:32:13.530Z,20.78
2024-05-09T09:33:13.805Z,20.92
2024-05-09T09:34:13.624Z,20.66
2024-05-09T09:35:13.494Z,20.55
2024-05-09T09:36:13.521Z,20.58
2024-05-09T09:37:13.505Z,20.70
2024-05-09T09:38:13.472Z,20.58
2024-05-09T09:39:13.508Z,20.59
2024-05-09T09:40:15.434Z,20.80
2024-05-09T09:41:16.437Z,20.93
2024-05-09T09:42:16.416Z,20.63
2024-05-09T09:43:13.604Z,20.66
2024-05-09T09:44:13.404Z,20.26
2024-05-09T09:45:13.424Z,19.99
2024-05-09T09:46:13.461Z,20.29
2024-05-09T09:47:13.378Z,20.39
2024-05-09T09:48:13.396Z,20.66
2024-05-09T09:49:13.351Z,20.84
2024-05-09T09:50:17.085Z,20.96
2024-05-09T09:51:14.307Z,21.07
2024-05-09T09:52:13.512Z,20.72
2024-05-09T09:53:13.263Z,20.50
2024-05-09T09:54:13.231Z,20.58
2024-05-09T09:55:13.388Z,20.70
2024-05-09T09:56:13.229Z,20.51
2024-05-09T09:57:13.210Z,20.67
2024-05-09T09:58:14.476Z,20.77
2024-05-09T09:59:13.188Z,20.65
2024-05-09T10:00:17.406Z,20.95
2024-05-09T10:01:17.418Z,21.25
2024-05-09T10:02:16.289Z,21.36
2024-05-09T10:03:13.376Z,21.50
2024-05-09T10:04:13.235Z,21.58
2024-05-09T10:05:13.193Z,21.73
2024-05-09T10:06:13.105Z,21.67
2024-05-09T10:07:13.198Z,21.75
2024-05-09T10:08:13.093Z,21.82
2024-05-09T10:09:13.030Z,21.80
2024-05-09T10:10:16.340Z,21.55
2024-05-09T10:11:14.041Z,21.39
2024-05-09T10:12:13.079Z,21.33
2024-05-09T10:13:13.109Z,21.51
2024-05-09T10:14:13.008Z,21.66
2024-05-09T10:15:12.961Z,21.91
2024-05-09T10:16:13.045Z,22.15
2024-05-09T10:17:12.945Z,22.25
2024-05-09T10:18:13.259Z,21.95
2024-05-09T10:19:13.046Z,21.83
2024-05-09T10:20:21.332Z,21.73
2024-05-09T10:21:16.903Z,21.91
2024-05-09T10:22:16.035Z,22.06
2024-05-09T10:23:12.861Z,22.29
2024-05-09T10:24:12.845Z,22.44
2024-05-09T10:25:12.871Z,22.63
2024-05-09T10:26:12.872Z,22.75
2024-05-09T10:27:12.799Z,22.75
2024-05-09T10:28:12.891Z,22.62
2024-05-09T10:29:12.756Z,22.63
2024-05-09T10:30:17.893Z,22.70
2024-05-09T10:31:14.197Z,22.48
2024-05-09T10:32:12.733Z,22.57
2024-05-09T10:33:12.812Z,22.75
2024-05-09T10:34:12.816Z,22.84
2024-05-09T10:35:12.736Z,22.94
2024-05-09T10:36:12.682Z,23.08
2024-05-09T10:37:12.710Z,22.94
2024-05-09T10:38:12.643Z,22.63
2024-05-09T10:39:12.631Z,22.45
2024-05-09T10:40:19.904Z,22.54
2024-05-09T10:41:16.649Z,22.63
2024-05-09T10:42:15.584Z,22.60
2024-05-09T10:43:12.644Z,22.25
2024-05-09T10:44:12.595Z,22.44
2024-05-09T10:45:12.557Z,22.76
2024-05-09T10:46:12.628Z,23.00
2024-05-09T10:47:12.609Z,23.00
2024-05-09T10:48:12.578Z,22.91
2024-05-09T10:49:12.656Z,22.66
2024-05-09T10:50:22.036Z,22.38
2024-05-09T10:51:13.553Z,22.59
2024-05-09T10:52:12.504Z,22.73
2024-05-09T10:53:12.443Z,22.99
2024-05-09T10:54:12.433Z,23.24
2024-05-09T10:55:12.498Z,23.51
2024-05-09T10:56:12.409Z,23.68
2024-05-09T10:57:12.434Z,23.50
2024-05-09T10:58:12.576Z,23.17
2024-05-09T10:59:12.366Z,22.63
2024-05-09T11:00:19.030Z,22.55
2024-05-09T11:01:16.446Z,21.98
2024-05-09T11:02:15.490Z,21.75
2024-05-09T11:03:12.387Z,21.72
2024-05-09T11:04:12.385Z,21.93
2024-05-09T11:05:12.509Z,22.00
2024-05-09T11:06:12.270Z,22.07
2024-05-09T11:07:12.351Z,22.30
2024-05-09T11:08:12.276Z,22.08
2024-05-09T11:09:12.233Z,22.30
2024-05-09T11:10:14.464Z,22.06
2024-05-09T11:11:12.227Z,21.95
2024-05-09T11:12:12.258Z,22.11
2024-05-09T11:13:12.359Z,22.22
2024-05-09T11:14:12.224Z,22.18
2024-05-09T11:15:12.158Z,22.38
2024-05-09T11:16:12.196Z,22.70
2024-05-09T11:17:12.163Z,23.06
2024-05-09T11:18:12.266Z,22.87
2024-05-09T11:19:12.272Z,22.87
2024-05-09T11:20:19.566Z,22.81
2024-05-09T11:21:16.052Z,22.93
2024-05-09T11:22:15.221Z,23.00
2024-05-09T11:23:12.048Z,22.96
2024-05-09T11:24:12.078Z,22.73
2024-05-09T11:25:12.107Z,22.55
2024-05-09T11:26:12.027Z,22.29
2024-05-09T11:27:11.972Z,22.11
2024-05-09T11:28:12.096Z,22.08
2024-05-09T11:29:12.529Z,22.28
2024-05-09T11:30:17.436Z,22.30
2024-05-09T11:31:12.998Z,22.43
2024-05-09T11:32:12.009Z,22.51
2024-05-09T11:33:12.006Z,22.53
2024-05-09T11:34:11.937Z,22.53
2024-05-09T11:35:11.895Z,22.33
2024-05-09T11:36:11.976Z,22.06
2024-05-09T11:37:11.877Z,21.91
2024-05-09T11:38:11.843Z,22.25
2024-05-09T11:39:11.855Z,22.17
2024-05-09T11:40:20.722Z,22.08
2024-05-09T11:41:15.845Z,22.11
2024-05-09T11:42:14.781Z,22.38
2024-05-09T11:43:11.875Z,22.70
2024-05-09T11:44:11.749Z,23.05
2024-05-09T11:45:11.747Z,23.36
2024-05-09T11:46:11.879Z,23.54
2024-05-09T11:47:11.775Z,23.61
2024-05-09T11:48:11.821Z,23.77
2024-05-09T11:49:11.957Z,23.86
2024-05-09T11:50:19.115Z,23.76
2024-05-09T11:51:12.673Z,23.71
2024-05-09T11:52:11.755Z,23.47
2024-05-09T11:53:11.631Z,23.71
2024-05-09T11:54:11.621Z,23.80
2024-05-09T11:55:11.730Z,23.66
2024-05-09T11:56:11.656Z,23.34
2024-05-09T11:57:11.575Z,23.41
2024-05-09T11:58:11.760Z,23.27
2024-05-09T11:59:11.538Z,23.59
2024-05-09T12:00:17.848Z,23.62
2024-05-09T12:01:15.649Z,23.39
2024-05-09T12:02:14.722Z,23.23
2024-05-09T12:03:11.591Z,23.34
2024-05-09T12:04:11.815Z,23.51
2024-05-09T12:05:11.535Z,23.73
2024-05-09T12:06:11.497Z,23.96
2024-05-09T12:07:12.961Z,24.13
2024-05-09T12:08:11.459Z,24.29
2024-05-09T12:09:11.422Z,24.36
2024-05-09T12:10:16.608Z,24.16
2024-05-09T12:11:12.501Z,23.56
2024-05-09T12:12:11.405Z,23.23
2024-05-09T12:13:11.410Z,23.17
2024-05-09T12:14:11.359Z,22.69
2024-05-09T12:15:11.393Z,22.15
2024-05-09T12:16:11.394Z,22.04
2024-05-09T12:17:11.410Z,21.88
2024-05-09T12:18:11.371Z,21.58
2024-05-09T12:19:11.350Z,21.54
2024-05-09T12:20:17.531Z,21.79
2024-05-09T12:21:15.284Z,22.10
2024-05-09T12:22:14.384Z,22.15
2024-05-09T12:23:11.284Z,22.06
2024-05-09T12:24:12.550Z,22.17
2024-05-09T12:25:11.270Z,22.47
2024-05-09T12:26:11.248Z,22.94
2024-05-09T12:27:11.183Z,22.99
2024-05-09T12:28:11.289Z,23.17
2024-05-09T12:29:11.158Z,23.09
2024-05-09T12:30:14.255Z,23.20
2024-05-09T12:31:12.230Z,23.47
2024-05-09T12:32:11.178Z,23.77
2024-05-09T12:33:12.385Z,23.98
2024-05-09T12:34:11.184Z,24.06
2024-05-09T12:35:11.078Z,24.36
2024-05-09T12:36:11.058Z,24.50
2024-05-09T12:37:11.216Z,24.60
2024-05-09T12:38:11.059Z,24.70
2024-05-09T12:39:11.081Z,24.61
2024-05-09T12:40:18.707Z,24.78
2024-05-09T12:41:14.996Z,24.76
2024-05-09T12:42:26.027Z,24.50
2024-05-09T12:43:12.301Z,24.53
2024-05-09T12:44:10.956Z,24.55
2024-05-09T12:45:10.973Z,24.40
2024-05-09T12:46:10.975Z,24.36
2024-05-09T12:47:10.910Z,23.83
2024-05-09T12:48:12.094Z,23.68
2024-05-09T12:49:11.224Z,23.87
2024-05-09T12:50:21.817Z,23.99
2024-05-09T12:51:11.883Z,24.06
2024-05-09T12:52:11.058Z,24.16
2024-05-09T12:53:10.918Z,24.39
2024-05-09T12:54:10.807Z,24.55
2024-05-09T12:55:11.001Z,24.73
2024-05-09T12:56:10.871Z,24.88
2024-05-09T12:57:10.800Z,24.91